地図

経路データ

SID SEASON NUMBER BASIN SUBBASIN NAME ISO_TIME NATURE LAT LON WMO_WIND WMO_PRES WMO_AGENCY TRACK_TYPE DIST2LAND LANDFALL IFLAG USA_AGENCY USA_ATCF_ID USA_LAT USA_LON USA_RECORD USA_STATUS USA_WIND USA_PRES USA_SSHS USA_R34_NE USA_R34_SE USA_R34_SW USA_R34_NW USA_R50_NE USA_R50_SE USA_R50_SW USA_R50_NW USA_R64_NE USA_R64_SE USA_R64_SW USA_R64_NW USA_POCI USA_ROCI USA_RMW USA_EYE TOKYO_LAT TOKYO_LON TOKYO_GRADE TOKYO_WIND TOKYO_PRES TOKYO_R50_DIR TOKYO_R50_LONG TOKYO_R50_SHORT TOKYO_R30_DIR TOKYO_R30_LONG TOKYO_R30_SHORT TOKYO_LAND CMA_LAT CMA_LON CMA_CAT CMA_WIND CMA_PRES HKO_LAT HKO_LON HKO_CAT HKO_WIND HKO_PRES NEWDELHI_LAT NEWDELHI_LON NEWDELHI_GRADE NEWDELHI_WIND NEWDELHI_PRES NEWDELHI_CI NEWDELHI_DP NEWDELHI_POCI REUNION_LAT REUNION_LON REUNION_TYPE REUNION_WIND REUNION_PRES REUNION_TNUM REUNION_CI REUNION_RMW REUNION_R34_NE REUNION_R34_SE REUNION_R34_SW REUNION_R34_NW REUNION_R50_NE REUNION_R50_SE REUNION_R50_SW REUNION_R50_NW REUNION_R64_NE REUNION_R64_SE REUNION_R64_SW REUNION_R64_NW BOM_LAT BOM_LON BOM_TYPE BOM_WIND BOM_PRES BOM_TNUM BOM_CI BOM_RMW BOM_R34_NE BOM_R34_SE BOM_R34_SW BOM_R34_NW BOM_R50_NE BOM_R50_SE BOM_R50_SW BOM_R50_NW BOM_R64_NE BOM_R64_SE BOM_R64_SW BOM_R64_NW BOM_ROCI BOM_POCI BOM_EYE BOM_POS_METHOD BOM_PRES_METHOD NADI_LAT NADI_LON NADI_CAT NADI_WIND NADI_PRES WELLINGTON_LAT WELLINGTON_LON WELLINGTON_WIND WELLINGTON_PRES DS824_LAT DS824_LON DS824_STAGE DS824_WIND DS824_PRES TD9636_LAT TD9636_LON TD9636_STAGE TD9636_WIND TD9636_PRES TD9635_LAT TD9635_LON TD9635_WIND TD9635_PRES TD9635_ROCI NEUMANN_LAT NEUMANN_LON NEUMANN_CLASS NEUMANN_WIND NEUMANN_PRES MLC_LAT MLC_LON MLC_CLASS MLC_WIND MLC_PRES USA_GUST BOM_GUST BOM_GUST_PER REUNION_GUST REUNION_GUST_PER USA_SEAHGT USA_SEARAD_NE USA_SEARAD_SE USA_SEARAD_SW USA_SEARAD_NW STORM_SPEED STORM_DIR
1984164N28285 1984 37 NA NA NOT_NAMED 1984-06-11 12:00:00 TS 28.0000 -75.5000 20 hurdat_atl main 408 408 O_____________ hurdat_atl AL011984 28.0000 -75.5000 TD 20 -1 3 316
1984164N28285 1984 37 NA NA NOT_NAMED 1984-06-11 15:00:00 TS 28.1024 -75.6100 main 411 405 P_____________ AL011984 28.1024 -75.6100 TD 22 -1 3 307
1984164N28285 1984 37 NA NA NOT_NAMED 1984-06-11 18:00:00 TS 28.2000 -75.8000 25 hurdat_atl main 409 404 O_____________ hurdat_atl AL011984 28.2000 -75.8000 TD 25 -1 5 293
1984164N28285 1984 37 NA NA NOT_NAMED 1984-06-11 21:00:00 TS 28.2926 -76.1201 main 404 386 P_____________ AL011984 28.2926 -76.1201 TD 25 -1 6 288
1984164N28285 1984 37 NA NA NOT_NAMED 1984-06-12 00:00:00 TS 28.4000 -76.5000 25 hurdat_atl main 386 361 O_____________ hurdat_atl AL011984 28.4000 -76.5000 TD 25 -1 7 292
1984164N28285 1984 37 NA NA NOT_NAMED 1984-06-12 03:00:00 TS 28.5500 -76.8574 main 351 322 P_____________ AL011984 28.5500 -76.8574 TD 27 -1 7 296
1984164N28285 1984 37 NA NA NOT_NAMED 1984-06-12 06:00:00 TS 28.7000 -77.2000 30 hurdat_atl main 322 294 O_____________ hurdat_atl AL011984 28.7000 -77.2000 TD 30 -1 6 295
1984164N28285 1984 37 NA NA NOT_NAMED 1984-06-12 09:00:00 TS 28.8149 -77.5151 main 294 266 P_____________ AL011984 28.8149 -77.5151 TD 30 -1 6 291
1984164N28285 1984 37 NA NA NOT_NAMED 1984-06-12 12:00:00 TS 28.9000 -77.8000 30 hurdat_atl main 266 247 O_____________ hurdat_atl AL011984 28.9000 -77.8000 TD 30 -1 5 286
1984164N28285 1984 37 NA NA NOT_NAMED 1984-06-12 15:00:00 TS 28.9498 -78.0352 main 247 221 P_____________ AL011984 28.9498 -78.0352 TD 30 -1 4 283
1984164N28285 1984 37 NA NA NOT_NAMED 1984-06-12 18:00:00 TS 29.0000 -78.3000 30 hurdat_atl main 221 187 O_____________ hurdat_atl AL011984 29.0000 -78.3000 TD 30 -1 6 283
1984164N28285 1984 37 NA NA NOT_NAMED 1984-06-12 21:00:00 TS 29.0776 -78.6776 main 187 157 P_____________ AL011984 29.0776 -78.6776 TD 30 -1 7 286
1984164N28285 1984 37 NA NA NOT_NAMED 1984-06-13 00:00:00 TS 29.2000 -79.1000 30 hurdat_atl main 157 137 O_____________ hurdat_atl AL011984 29.2000 -79.1000 TD 30 -1 8 293
1984164N28285 1984 37 NA NA NOT_NAMED 1984-06-13 03:00:00 TS 29.4001 -79.5297 main 137 111 P_____________ AL011984 29.4001 -79.5297 TD 30 -1 8 300
1984164N28285 1984 37 NA NA NOT_NAMED 1984-06-13 06:00:00 TS 29.6000 -79.9000 30 hurdat_atl main 111 102 O_____________ hurdat_atl AL011984 29.6000 -79.9000 TD 30 -1 6 303
1984164N28285 1984 37 NA NA NOT_NAMED 1984-06-13 09:00:00 TS 29.7222 -80.1078 main 102 89 P_____________ AL011984 29.7222 -80.1078 TD 27 -1 4 300
1984164N28285 1984 37 NA NA NOT_NAMED 1984-06-13 12:00:00 TS 29.8000 -80.3000 25 hurdat_atl main 89 62 O_____________ hurdat_atl AL011984 29.8000 -80.3000 TD 25 -1 5 285
1984164N28285 1984 37 NA NA NOT_NAMED 1984-06-13 15:00:00 TS 29.8425 -80.6202 main 62 30 P_____________ AL011984 29.8425 -80.6202 TD 25 -1 6 279
1984164N28285 1984 37 NA NA NOT_NAMED 1984-06-13 18:00:00 TS 29.9000 -81.0000 25 hurdat_atl main 30 0 O_____________ hurdat_atl AL011984 29.9000 -81.0000 TD 25 -1 7 285
1984164N28285 1984 37 NA NA NOT_NAMED 1984-06-13 21:00:00 TS 30.0277 -81.3971 main 0 0 P_____________ AL011984 30.0277 -81.3971 TD -1 8 293
1984164N28285 1984 37 NA NA NOT_NAMED 1984-06-14 00:00:00 TS 30.2000 -81.8000 hurdat_atl main 0 O_____________ hurdat_atl AL011984 30.2000 -81.8000 TD -1 8 296

IBTrACS Databaseについて

本データベースは、米国NOAAが公開する1842年以降の世界の熱帯低気圧のベストトラックデータアーカイブInternational Best Track Archive for Climate Stewardship (IBTrACS)を、ウェブで閲覧しやすい形式に変換したものです。

最終更新日:2021-11-26